createdAt,value
2022-10-12T00:01:14.866Z,17.50
2022-10-12T00:03:43.961Z,17.50
2022-10-12T00:06:16.477Z,17.50
2022-10-12T00:08:46.258Z,17.50
2022-10-12T00:11:16.641Z,17.50
2022-10-12T00:13:46.252Z,17.50
2022-10-12T00:16:16.764Z,17.40
2022-10-12T00:18:45.399Z,17.40
2022-10-12T00:21:17.010Z,17.50
2022-10-12T00:23:46.275Z,17.50
2022-10-12T00:26:16.950Z,17.40
2022-10-12T00:28:46.143Z,17.40
2022-10-12T00:31:16.909Z,17.40
2022-10-12T00:33:46.038Z,17.40
2022-10-12T00:36:19.601Z,17.40
2022-10-12T00:38:48.840Z,17.40
2022-10-12T00:41:19.072Z,17.40
2022-10-12T00:43:52.920Z,17.40
2022-10-12T00:46:30.436Z,17.40
2022-10-12T00:49:04.772Z,17.40
2022-10-12T00:51:35.644Z,17.40
2022-10-12T00:54:09.599Z,17.40
2022-10-12T00:56:40.913Z,17.30
2022-10-12T00:59:14.364Z,17.40
2022-10-12T01:01:44.004Z,17.40
2022-10-12T01:04:12.857Z,17.30
2022-10-12T01:06:42.894Z,17.40
2022-10-12T01:09:11.369Z,17.40
2022-10-12T01:11:39.808Z,17.50
2022-10-12T01:14:09.463Z,17.30
2022-10-12T01:16:42.250Z,17.30
2022-10-12T01:19:24.617Z,17.30
2022-10-12T01:22:01.789Z,17.20
2022-10-12T01:24:54.458Z,17.30
2022-10-12T01:27:43.076Z,17.20
2022-10-12T01:30:23.379Z,17.00
2022-10-12T01:33:10.883Z,16.90
2022-10-12T01:35:50.557Z,16.80
2022-10-12T01:38:29.823Z,16.80
2022-10-12T01:41:04.432Z,16.70
2022-10-12T01:43:37.294Z,16.70
2022-10-12T01:46:24.433Z,16.80
2022-10-12T01:48:55.588Z,16.90
2022-10-12T01:51:30.730Z,16.80
2022-10-12T01:54:09.911Z,16.70
2022-10-12T01:56:45.766Z,16.80
2022-10-12T01:59:19.795Z,16.70
2022-10-12T02:01:57.215Z,16.80
2022-10-12T02:04:32.206Z,16.80
2022-10-12T02:07:06.211Z,16.80
2022-10-12T02:09:37.046Z,16.90
2022-10-12T02:12:11.351Z,16.90
2022-10-12T02:14:43.330Z,16.80
2022-10-12T02:17:16.478Z,16.80
2022-10-12T02:19:51.970Z,16.70
2022-10-12T02:22:20.885Z,16.60
2022-10-12T02:24:52.985Z,16.70
2022-10-12T02:27:23.415Z,16.70
2022-10-12T02:29:52.133Z,16.70
2022-10-12T02:32:29.046Z,16.60
2022-10-12T02:35:04.694Z,16.60
2022-10-12T02:37:39.450Z,16.50
2022-10-12T02:40:13.639Z,16.60
2022-10-12T02:43:09.237Z,16.70
2022-10-12T02:45:37.680Z,16.80
2022-10-12T02:48:09.249Z,16.80
2022-10-12T02:50:39.305Z,16.80
2022-10-12T02:53:08.795Z,16.80
2022-10-12T02:55:40.129Z,16.90
2022-10-12T02:58:08.703Z,17.00
2022-10-12T03:00:37.210Z,16.90
2022-10-12T03:03:07.121Z,16.90
2022-10-12T03:05:35.733Z,16.80
2022-10-12T03:08:04.307Z,16.80
2022-10-12T03:10:32.935Z,16.80
2022-10-12T03:13:01.497Z,16.80
2022-10-12T03:15:30.010Z,16.80
2022-10-12T03:17:58.571Z,16.70
2022-10-12T03:20:28.448Z,16.70
2022-10-12T03:22:57.010Z,16.70
2022-10-12T03:25:25.568Z,16.80
2022-10-12T03:27:54.210Z,16.80
2022-10-12T03:30:22.667Z,16.90
2022-10-12T03:32:51.197Z,16.90
2022-10-12T03:35:19.629Z,16.90
2022-10-12T03:37:49.481Z,16.80
2022-10-12T03:40:18.079Z,16.90
2022-10-12T03:42:46.544Z,16.90
2022-10-12T03:45:15.191Z,16.90
2022-10-12T03:47:43.954Z,16.80
2022-10-12T03:50:12.507Z,16.80
2022-10-12T03:52:41.049Z,16.80
2022-10-12T03:55:11.541Z,16.70
2022-10-12T03:57:40.956Z,16.70
2022-10-12T04:00:10.936Z,16.80
2022-10-12T04:02:42.445Z,16.80
2022-10-12T04:05:11.550Z,16.80
2022-10-12T04:07:40.277Z,16.70
2022-10-12T04:10:11.073Z,16.60
2022-10-12T04:12:39.558Z,16.60
2022-10-12T04:15:10.188Z,16.60
2022-10-12T04:17:39.165Z,16.60
2022-10-12T04:20:08.948Z,16.60
2022-10-12T04:22:37.486Z,16.60
2022-10-12T04:25:06.663Z,16.60
2022-10-12T04:27:36.788Z,16.50
2022-10-12T04:30:06.104Z,16.40
2022-10-12T04:32:34.623Z,16.40
2022-10-12T04:35:03.120Z,16.40
2022-10-12T04:37:32.483Z,16.50
2022-10-12T04:40:00.953Z,16.50
2022-10-12T04:42:29.372Z,16.50
2022-10-12T04:44:59.226Z,16.50
2022-10-12T04:47:27.766Z,16.50
2022-10-12T04:49:56.348Z,16.60
2022-10-12T04:52:24.960Z,16.50
2022-10-12T04:54:53.424Z,16.50
2022-10-12T04:57:22.088Z,16.50
2022-10-12T04:59:50.561Z,16.50
2022-10-12T05:02:20.517Z,16.50
2022-10-12T05:04:48.993Z,16.50
2022-10-12T05:07:17.453Z,16.50
2022-10-12T05:09:45.942Z,16.50
2022-10-12T05:12:14.363Z,16.60
2022-10-12T05:14:44.321Z,16.50
2022-10-12T05:17:13.016Z,16.60
2022-10-12T05:19:42.849Z,16.50
2022-10-12T05:22:11.431Z,16.60
2022-10-12T05:24:39.908Z,16.60
2022-10-12T05:27:08.361Z,16.70
2022-10-12T05:29:36.847Z,16.80
2022-10-12T05:32:05.382Z,16.70
2022-10-12T05:34:34.270Z,16.60
2022-10-12T05:37:04.134Z,16.50
2022-10-12T05:39:32.663Z,16.50
2022-10-12T05:42:01.399Z,16.50
2022-10-12T05:44:30.038Z,16.60
2022-10-12T05:46:58.526Z,16.70
2022-10-12T05:49:27.114Z,16.70
2022-10-12T05:51:55.611Z,16.80
2022-10-12T05:54:25.512Z,16.80
2022-10-12T05:56:53.959Z,16.80
2022-10-12T05:59:22.420Z,16.80
2022-10-12T06:01:50.946Z,16.80
2022-10-12T06:04:19.920Z,16.80
2022-10-12T06:06:48.419Z,16.90
2022-10-12T06:09:16.994Z,17.00
2022-10-12T06:11:46.880Z,17.10
2022-10-12T06:14:15.941Z,17.20
2022-10-12T06:16:44.426Z,17.30
2022-10-12T06:19:13.096Z,17.40
2022-10-12T06:21:41.568Z,17.50
2022-10-12T06:24:10.202Z,17.50
2022-10-12T06:26:38.681Z,17.60
2022-10-12T06:29:08.531Z,17.60
2022-10-12T06:31:38.474Z,17.60
2022-10-12T06:34:07.004Z,17.60
2022-10-12T06:36:35.443Z,17.50
2022-10-12T06:39:03.991Z,17.60
2022-10-12T06:41:32.478Z,17.70
2022-10-12T06:44:00.975Z,17.70
2022-10-12T06:46:30.904Z,17.80
2022-10-12T06:48:59.350Z,17.90
2022-10-12T06:51:27.810Z,18.00
2022-10-12T06:53:56.626Z,18.10
2022-10-12T06:56:25.190Z,18.00
2022-10-12T06:58:56.632Z,17.90
2022-10-12T07:01:25.519Z,17.80
2022-10-12T07:04:00.394Z,18.00
2022-10-12T07:06:29.757Z,18.10
2022-10-12T07:08:58.199Z,18.20
2022-10-12T07:11:27.521Z,18.10
2022-10-12T07:13:56.005Z,18.10
2022-10-12T07:16:24.522Z,18.20
2022-10-12T07:18:54.398Z,18.40
2022-10-12T07:21:22.907Z,18.50
2022-10-12T07:23:51.390Z,18.50
2022-10-12T07:26:19.891Z,18.50
2022-10-12T07:28:48.718Z,18.50
2022-10-12T07:31:17.169Z,18.60
2022-10-12T07:33:45.668Z,18.60
2022-10-12T07:36:20.754Z,18.60
2022-10-12T07:38:50.273Z,18.60
2022-10-12T07:41:18.936Z,18.60
2022-10-12T07:43:48.946Z,18.60
2022-10-12T07:46:17.475Z,18.60
2022-10-12T07:48:50.000Z,18.60
2022-10-12T07:51:21.101Z,18.70
2022-10-12T07:53:50.760Z,18.60
2022-10-12T07:56:19.527Z,18.50
2022-10-12T07:58:50.711Z,18.30
2022-10-12T08:01:20.691Z,18.20
2022-10-12T08:03:49.713Z,18.20
2022-10-12T08:06:21.607Z,18.20
2022-10-12T08:08:50.673Z,18.30
2022-10-12T08:11:20.107Z,18.20
2022-10-12T08:13:49.407Z,18.20
2022-10-12T08:16:20.679Z,18.20
2022-10-12T08:18:49.354Z,18.20
2022-10-12T08:21:18.939Z,18.30
2022-10-12T08:23:49.807Z,18.30
2022-10-12T08:26:18.341Z,18.40
2022-10-12T08:28:46.882Z,18.50
2022-10-12T08:31:18.002Z,18.60
2022-10-12T08:33:46.607Z,18.70
2022-10-12T08:36:15.509Z,18.70
2022-10-12T08:38:45.585Z,18.70
2022-10-12T08:41:27.554Z,18.70
2022-10-12T08:44:09.722Z,18.70
2022-10-12T08:46:38.625Z,18.80
2022-10-12T08:49:14.207Z,18.70
2022-10-12T08:51:50.613Z,18.70
2022-10-12T08:54:22.416Z,18.70
2022-10-12T08:56:55.175Z,18.70
2022-10-12T08:59:26.452Z,18.80
2022-10-12T09:02:07.094Z,18.80
2022-10-12T09:04:46.277Z,18.70
2022-10-12T09:07:19.469Z,18.70
2022-10-12T09:10:04.261Z,18.80
2022-10-12T09:12:48.681Z,18.80
2022-10-12T09:15:22.682Z,18.90
2022-10-12T09:17:55.200Z,18.90
2022-10-12T09:20:27.349Z,19.00
2022-10-12T09:22:59.827Z,19.00
2022-10-12T09:25:29.999Z,18.90
2022-10-12T09:28:15.034Z,19.00
2022-10-12T09:30:51.932Z,19.00
2022-10-12T09:33:25.249Z,19.00
2022-10-12T09:35:56.871Z,19.10
2022-10-12T09:38:25.589Z,19.10
2022-10-12T09:40:53.982Z,19.10
2022-10-12T09:43:24.089Z,19.20
2022-10-12T09:45:53.012Z,19.30
2022-10-12T09:48:24.016Z,19.40
2022-10-12T09:50:55.904Z,19.50
2022-10-12T09:53:31.311Z,19.50
2022-10-12T09:56:06.339Z,19.60
2022-10-12T09:58:42.911Z,19.70
2022-10-12T10:01:22.525Z,19.60
2022-10-12T10:04:10.225Z,19.60
2022-10-12T10:06:41.194Z,19.70
2022-10-12T10:09:32.083Z,19.70
2022-10-12T10:12:14.521Z,19.60
2022-10-12T10:14:46.403Z,19.70
2022-10-12T10:17:24.593Z,19.70
2022-10-12T10:19:55.345Z,19.80
2022-10-12T10:22:24.974Z,19.90
2022-10-12T10:24:59.932Z,19.90
2022-10-12T10:27:37.233Z,19.90
2022-10-12T10:30:29.765Z,19.90
2022-10-12T10:33:14.854Z,19.80
2022-10-12T10:35:59.496Z,19.90
2022-10-12T10:38:28.609Z,19.80
2022-10-12T10:40:58.400Z,19.80
2022-10-12T10:43:30.069Z,19.70
2022-10-12T10:46:02.672Z,19.50
2022-10-12T10:48:36.245Z,19.40
2022-10-12T10:51:06.648Z,19.30
2022-10-12T10:53:45.929Z,19.20
2022-10-12T10:56:18.459Z,19.20
2022-10-12T10:58:49.896Z,19.30
2022-10-12T11:01:26.251Z,19.30
2022-10-12T11:04:00.383Z,19.40
2022-10-12T11:06:38.379Z,19.40
2022-10-12T11:09:12.222Z,19.40
2022-10-12T11:11:43.629Z,19.40
2022-10-12T11:14:17.305Z,19.30
2022-10-12T11:16:50.058Z,19.30
2022-10-12T11:19:30.989Z,19.20
2022-10-12T11:22:03.544Z,19.00
2022-10-12T11:24:39.826Z,19.00
2022-10-12T11:27:15.535Z,18.90
2022-10-12T11:29:44.022Z,18.80
2022-10-12T11:32:23.581Z,18.70
2022-10-12T11:34:56.537Z,18.60
2022-10-12T11:37:32.009Z,18.50
2022-10-12T11:40:02.679Z,18.60
2022-10-12T11:42:34.051Z,18.50
2022-10-12T11:45:07.592Z,18.60
2022-10-12T11:47:44.121Z,18.60
2022-10-12T11:50:25.468Z,18.50
2022-10-12T11:52:55.927Z,18.40
2022-10-12T11:55:42.903Z,18.30
2022-10-12T11:58:16.206Z,18.30
2022-10-12T12:00:58.696Z,18.30
2022-10-12T12:03:36.009Z,18.40
2022-10-12T12:06:56.158Z,18.30
2022-10-12T12:09:37.364Z,18.30
2022-10-12T12:12:21.756Z,18.30
2022-10-12T12:15:08.797Z,18.20
2022-10-12T12:17:38.844Z,18.20
2022-10-12T12:20:40.230Z,18.10
2022-10-12T12:23:21.382Z,18.10
2022-10-12T12:26:09.643Z,18.10
2022-10-12T12:28:42.623Z,18.20
2022-10-12T12:31:15.846Z,18.20
2022-10-12T12:33:46.965Z,18.20
2022-10-12T12:36:25.871Z,18.20
2022-10-12T12:38:56.145Z,18.20
2022-10-12T12:41:29.799Z,18.20
2022-10-12T12:44:01.666Z,18.20
2022-10-12T12:47:51.443Z,18.10
2022-10-12T12:50:05.564Z,18.20
2022-10-12T12:52:36.622Z,18.20
2022-10-12T12:55:35.590Z,18.20
2022-10-12T12:58:33.631Z,18.30
2022-10-12T13:01:23.815Z,18.30
2022-10-12T13:04:35.804Z,18.30
2022-10-12T13:07:44.467Z,18.30
2022-10-12T13:10:28.148Z,18.20
2022-10-12T13:13:28.393Z,18.20
2022-10-12T13:16:28.499Z,18.20
2022-10-12T13:19:05.421Z,18.20
2022-10-12T13:21:42.581Z,18.20
2022-10-12T13:24:17.707Z,18.20
2022-10-12T13:26:53.211Z,18.10
2022-10-12T13:29:28.520Z,18.20
2022-10-12T13:32:01.872Z,18.10
2022-10-12T13:34:37.516Z,18.20
2022-10-12T13:37:11.926Z,18.30
2022-10-12T13:39:43.296Z,18.20
2022-10-12T13:42:17.904Z,18.20
2022-10-12T13:44:49.168Z,18.30
2022-10-12T13:47:25.644Z,18.20
2022-10-12T13:49:54.611Z,18.20
2022-10-12T13:52:31.812Z,18.30
2022-10-12T13:55:01.730Z,18.30
2022-10-12T13:57:40.617Z,18.30
2022-10-12T14:00:18.929Z,18.30
2022-10-12T14:02:56.809Z,18.30
2022-10-12T14:05:27.675Z,18.20
2022-10-12T14:08:00.238Z,18.10
2022-10-12T14:10:32.852Z,18.20
2022-10-12T14:13:05.013Z,18.30
2022-10-12T14:15:35.815Z,18.30
2022-10-12T14:18:04.597Z,18.30
2022-10-12T14:20:36.065Z,18.20
2022-10-12T14:23:06.492Z,18.30
2022-10-12T14:25:34.987Z,18.30
2022-10-12T14:28:07.866Z,18.30
2022-10-12T14:30:40.393Z,18.30
2022-10-12T14:33:22.700Z,18.40
2022-10-12T14:36:13.619Z,18.30
2022-10-12T14:38:44.153Z,18.30
2022-10-12T14:41:35.704Z,18.30
2022-10-12T14:44:13.314Z,18.20
2022-10-12T14:46:45.105Z,18.10
2022-10-12T14:49:18.860Z,18.20
2022-10-12T14:51:47.704Z,18.10
2022-10-12T14:54:16.171Z,18.00
2022-10-12T14:56:44.638Z,18.00
2022-10-12T14:59:15.585Z,17.90
2022-10-12T15:01:47.650Z,17.80
2022-10-12T15:04:19.758Z,17.70
2022-10-12T15:06:50.915Z,17.70
2022-10-12T15:09:19.714Z,17.70
2022-10-12T15:11:48.194Z,17.60
2022-10-12T15:14:18.050Z,17.60
2022-10-12T15:16:46.487Z,17.70
2022-10-12T15:19:14.942Z,17.80
2022-10-12T15:21:43.644Z,17.90
2022-10-12T15:24:15.481Z,17.90
2022-10-12T15:26:43.928Z,17.90
2022-10-12T15:29:12.420Z,18.00
2022-10-12T15:31:42.219Z,18.00
2022-10-12T15:34:14.467Z,18.00
2022-10-12T15:36:43.619Z,18.00
2022-10-12T15:39:12.125Z,18.00
2022-10-12T15:41:40.655Z,17.90
2022-10-12T15:44:12.612Z,17.90
2022-10-12T15:46:43.347Z,18.00
2022-10-12T15:49:14.211Z,18.10
2022-10-12T15:51:48.608Z,18.00
2022-10-12T15:54:17.069Z,18.10
2022-10-12T15:56:45.910Z,18.00
2022-10-12T15:59:14.386Z,18.00
2022-10-12T16:01:44.881Z,17.90
2022-10-12T16:04:16.934Z,17.90
2022-10-12T16:06:45.466Z,17.90
2022-10-12T16:09:13.915Z,17.80
2022-10-12T16:11:42.401Z,17.80
2022-10-12T16:14:12.018Z,17.70
2022-10-12T16:16:40.461Z,17.70
2022-10-12T16:19:10.345Z,17.60
2022-10-12T16:21:38.983Z,17.60
2022-10-12T16:24:07.669Z,17.50
2022-10-12T16:26:36.135Z,17.50
2022-10-12T16:29:04.615Z,17.50
2022-10-12T16:31:33.089Z,17.60
2022-10-12T16:34:01.585Z,17.60
2022-10-12T16:36:31.444Z,17.60
2022-10-12T16:38:59.886Z,17.50
2022-10-12T16:41:30.450Z,17.60
2022-10-12T16:44:03.475Z,17.60
2022-10-12T16:46:31.923Z,17.70
2022-10-12T16:49:00.402Z,17.80
2022-10-12T16:51:30.355Z,17.80
2022-10-12T16:53:58.848Z,17.90
2022-10-12T16:56:27.315Z,17.80
2022-10-12T16:58:56.329Z,17.80
2022-10-12T17:01:24.809Z,17.80
2022-10-12T17:03:55.008Z,17.90
2022-10-12T17:06:24.351Z,17.80
2022-10-12T17:08:54.255Z,17.80
2022-10-12T17:11:22.746Z,17.70
2022-10-12T17:13:51.177Z,17.70
2022-10-12T17:16:39.961Z,17.80
2022-10-12T17:19:08.625Z,17.90
2022-10-12T17:21:42.059Z,17.80
2022-10-12T17:24:13.478Z,17.70
2022-10-12T17:26:42.290Z,17.70
2022-10-12T17:29:12.580Z,17.70
2022-10-12T17:31:41.567Z,17.70
2022-10-12T17:34:14.863Z,17.80
2022-10-12T17:36:43.373Z,17.70
2022-10-12T17:39:13.449Z,17.80
2022-10-12T17:41:42.223Z,17.70
2022-10-12T17:44:11.366Z,17.90
2022-10-12T17:46:40.134Z,17.90
2022-10-12T17:49:09.224Z,18.00
2022-10-12T17:51:37.666Z,18.00
2022-10-12T17:54:06.205Z,18.00
2022-10-12T17:56:36.325Z,17.90
2022-10-12T17:59:06.114Z,18.00
2022-10-12T18:01:35.388Z,18.00
2022-10-12T18:04:05.141Z,18.00
2022-10-12T18:06:35.177Z,18.00
2022-10-12T18:09:05.546Z,18.00
2022-10-12T18:11:35.988Z,18.00
2022-10-12T18:14:04.951Z,18.00
2022-10-12T18:16:35.040Z,17.90
2022-10-12T18:19:05.231Z,18.00
2022-10-12T18:21:34.763Z,17.90
2022-10-12T18:24:04.243Z,17.80
2022-10-12T18:26:33.261Z,17.80
2022-10-12T18:29:03.436Z,17.90
2022-10-12T18:31:32.127Z,17.90
2022-10-12T18:34:00.693Z,18.00
2022-10-12T18:36:30.037Z,18.10
2022-10-12T18:39:01.298Z,18.10
2022-10-12T18:41:30.239Z,18.10
2022-10-12T18:44:00.520Z,18.00
2022-10-12T18:46:32.448Z,18.00
2022-10-12T18:49:05.005Z,18.10
2022-10-12T18:51:35.315Z,18.20
2022-10-12T18:54:05.182Z,18.20
2022-10-12T18:56:36.011Z,18.10
2022-10-12T18:59:05.746Z,18.00
2022-10-12T19:01:35.911Z,18.10
2022-10-12T19:04:05.673Z,17.90
2022-10-12T19:06:36.792Z,17.90
2022-10-12T19:09:05.740Z,17.80
2022-10-12T19:11:34.664Z,17.90
2022-10-12T19:14:05.824Z,17.90
2022-10-12T19:16:36.321Z,17.90
2022-10-12T19:19:06.638Z,17.80
2022-10-12T19:21:35.475Z,17.90
2022-10-12T19:24:04.471Z,18.00
2022-10-12T19:26:33.680Z,18.10
2022-10-12T19:29:02.647Z,18.00
2022-10-12T19:31:32.521Z,18.10
2022-10-12T19:34:04.374Z,18.10
2022-10-12T19:36:33.640Z,18.10
2022-10-12T19:39:03.950Z,18.00
2022-10-12T19:41:32.564Z,18.00
2022-10-12T19:44:02.508Z,18.10
2022-10-12T19:46:31.084Z,18.10
2022-10-12T19:49:01.841Z,18.00
2022-10-12T19:51:32.515Z,18.00
2022-10-12T19:54:04.274Z,18.00
2022-10-12T19:56:33.915Z,18.10
2022-10-12T19:59:02.386Z,18.20
2022-10-12T20:01:34.862Z,18.20
2022-10-12T20:04:07.196Z,18.10
2022-10-12T20:06:35.769Z,18.10
2022-10-12T20:09:05.309Z,18.10
2022-10-12T20:11:33.857Z,18.20
2022-10-12T20:14:02.344Z,18.10
2022-10-12T20:16:34.838Z,18.10
2022-10-12T20:19:06.933Z,18.00
2022-10-12T20:21:36.784Z,17.90
2022-10-12T20:24:05.554Z,17.80
2022-10-12T20:26:33.994Z,17.80
2022-10-12T20:29:02.908Z,17.80
2022-10-12T20:31:31.653Z,17.80
2022-10-12T20:34:00.395Z,17.90
2022-10-12T20:36:31.851Z,18.00
2022-10-12T20:39:00.905Z,17.90
2022-10-12T20:41:29.423Z,17.90
2022-10-12T20:43:58.390Z,17.90
2022-10-12T20:46:27.507Z,17.90
2022-10-12T20:48:59.103Z,18.00
2022-10-12T20:51:31.330Z,18.00
2022-10-12T20:54:01.019Z,17.90
2022-10-12T20:56:30.888Z,17.90
2022-10-12T20:59:00.103Z,17.80
2022-10-12T21:01:29.368Z,17.80
2022-10-12T21:03:58.009Z,17.80
2022-10-12T21:06:26.619Z,17.80
2022-10-12T21:08:58.417Z,17.90
2022-10-12T21:11:26.933Z,17.90
2022-10-12T21:13:56.582Z,18.00
2022-10-12T21:16:27.086Z,17.90
2022-10-12T21:18:56.351Z,18.00
2022-10-12T21:21:25.203Z,17.90
2022-10-12T21:23:56.861Z,17.80
2022-10-12T21:26:27.423Z,17.80
2022-10-12T21:28:56.086Z,17.70
2022-10-12T21:31:29.508Z,17.80
2022-10-12T21:34:01.457Z,17.80
2022-10-12T21:36:30.753Z,17.80
2022-10-12T21:39:00.622Z,17.80
2022-10-12T21:41:30.931Z,17.70
2022-10-12T21:43:59.642Z,17.80
2022-10-12T21:46:29.909Z,17.80
2022-10-12T21:49:00.001Z,17.80
2022-10-12T21:51:30.233Z,17.80
2022-10-12T21:54:00.383Z,17.90
2022-10-12T21:56:30.903Z,17.90
2022-10-12T21:59:01.691Z,17.90
2022-10-12T22:01:34.569Z,17.90
2022-10-12T22:04:05.640Z,18.00
2022-10-12T22:06:35.145Z,18.20
2022-10-12T22:09:07.229Z,18.10
2022-10-12T22:11:37.276Z,18.00
2022-10-12T22:14:12.586Z,18.10
2022-10-12T22:16:43.238Z,18.00
2022-10-12T22:19:15.365Z,18.00
2022-10-12T22:21:44.787Z,17.90
2022-10-12T22:24:14.767Z,17.90
2022-10-12T22:26:43.561Z,17.90
2022-10-12T22:29:12.361Z,17.90
2022-10-12T22:31:42.056Z,17.90
2022-10-12T22:34:11.766Z,17.80
2022-10-12T22:36:40.335Z,17.90
2022-10-12T22:39:09.803Z,17.90
2022-10-12T22:41:39.632Z,17.90
2022-10-12T22:44:08.020Z,17.90
2022-10-12T22:46:36.426Z,18.00
2022-10-12T22:49:04.968Z,17.90
2022-10-12T22:51:35.192Z,18.00
2022-10-12T22:54:04.355Z,18.10
2022-10-12T22:56:33.310Z,18.00
2022-10-12T22:59:06.864Z,18.00
2022-10-12T23:01:36.793Z,18.10
2022-10-12T23:04:05.459Z,18.00
2022-10-12T23:06:34.297Z,18.00
2022-10-12T23:09:02.793Z,17.90
2022-10-12T23:11:31.708Z,18.10
2022-10-12T23:14:00.284Z,18.10
2022-10-12T23:16:33.943Z,18.10
2022-10-12T23:19:04.361Z,18.10
2022-10-12T23:21:34.828Z,18.10
2022-10-12T23:24:05.611Z,18.20
2022-10-12T23:26:34.649Z,18.20
2022-10-12T23:29:03.404Z,18.10
2022-10-12T23:31:35.618Z,18.00
2022-10-12T23:34:06.573Z,18.00
2022-10-12T23:36:35.483Z,17.90
2022-10-12T23:39:05.757Z,17.90
2022-10-12T23:41:34.701Z,17.80
2022-10-12T23:44:03.117Z,17.90
2022-10-12T23:46:33.141Z,17.90
2022-10-12T23:49:01.647Z,17.90
2022-10-12T23:51:30.183Z,17.80
2022-10-12T23:53:58.873Z,17.90
2022-10-12T23:56:27.353Z,17.90
2022-10-12T23:58:56.886Z,17.90
